sensor_id;sensor_type;location;lat;lon;timestamp;P1;durP1;ratioP1;P2;durP2;ratioP2
6388;SDS011;3227;42.654;23.360;2023-12-22T00:02:05;23.90;;;11.73;;
6388;SDS011;3227;42.654;23.360;2023-12-22T00:04:31;20.97;;;10.33;;
6388;SDS011;3227;42.654;23.360;2023-12-22T00:06:58;22.10;;;11.10;;
6388;SDS011;3227;42.654;23.360;2023-12-22T00:09:25;22.77;;;10.97;;
6388;SDS011;3227;42.654;23.360;2023-12-22T00:11:53;20.43;;;10.80;;
6388;SDS011;3227;42.654;23.360;2023-12-22T00:14:20;21.00;;;10.13;;
6388;SDS011;3227;42.654;23.360;2023-12-22T00:16:46;16.20;;;9.30;;
6388;SDS011;3227;42.654;23.360;2023-12-22T00:19:13;17.20;;;9.30;;
6388;SDS011;3227;42.654;23.360;2023-12-22T00:21:40;17.20;;;8.80;;
6388;SDS011;3227;42.654;23.360;2023-12-22T00:24:07;18.53;;;10.13;;
6388;SDS011;3227;42.654;23.360;2023-12-22T00:26:33;17.87;;;9.43;;
6388;SDS011;3227;42.654;23.360;2023-12-22T00:29:01;18.13;;;10.00;;
6388;SDS011;3227;42.654;23.360;2023-12-22T00:31:28;17.57;;;8.83;;
6388;SDS011;3227;42.654;23.360;2023-12-22T00:33:55;21.47;;;9.20;;
6388;SDS011;3227;42.654;23.360;2023-12-22T00:36:22;17.67;;;8.97;;
6388;SDS011;3227;42.654;23.360;2023-12-22T00:38:49;19.20;;;9.77;;
6388;SDS011;3227;42.654;23.360;2023-12-22T00:41:16;21.50;;;8.50;;
6388;SDS011;3227;42.654;23.360;2023-12-22T00:43:43;16.00;;;9.20;;
6388;SDS011;3227;42.654;23.360;2023-12-22T00:46:11;16.27;;;8.47;;
6388;SDS011;3227;42.654;23.360;2023-12-22T00:48:39;16.73;;;8.40;;
6388;SDS011;3227;42.654;23.360;2023-12-22T00:51:05;16.10;;;8.07;;
6388;SDS011;3227;42.654;23.360;2023-12-22T00:53:33;14.60;;;8.13;;
6388;SDS011;3227;42.654;23.360;2023-12-22T00:56:00;18.60;;;8.53;;
6388;SDS011;3227;42.654;23.360;2023-12-22T00:58:27;18.73;;;9.07;;
6388;SDS011;3227;42.654;23.360;2023-12-22T01:00:54;17.63;;;8.73;;
6388;SDS011;3227;42.654;23.360;2023-12-22T01:03:23;17.43;;;8.43;;
6388;SDS011;3227;42.654;23.360;2023-12-22T01:05:49;13.93;;;8.23;;
6388;SDS011;3227;42.654;23.360;2023-12-22T01:08:16;16.20;;;8.07;;
6388;SDS011;3227;42.654;23.360;2023-12-22T01:10:43;14.33;;;8.03;;
6388;SDS011;3227;42.654;23.360;2023-12-22T01:13:10;15.47;;;8.80;;
6388;SDS011;3227;42.654;23.360;2023-12-22T01:15:36;16.83;;;9.00;;
6388;SDS011;3227;42.654;23.360;2023-12-22T01:18:02;14.63;;;8.43;;
6388;SDS011;3227;42.654;23.360;2023-12-22T01:20:31;14.70;;;7.67;;
6388;SDS011;3227;42.654;23.360;2023-12-22T01:22:58;15.23;;;9.23;;
6388;SDS011;3227;42.654;23.360;2023-12-22T01:25:25;17.20;;;9.30;;
6388;SDS011;3227;42.654;23.360;2023-12-22T01:27:51;18.70;;;8.67;;
6388;SDS011;3227;42.654;23.360;2023-12-22T01:30:18;19.73;;;8.47;;
6388;SDS011;3227;42.654;23.360;2023-12-22T01:32:45;16.53;;;8.60;;
6388;SDS011;3227;42.654;23.360;2023-12-22T01:35:12;12.20;;;7.23;;
6388;SDS011;3227;42.654;23.360;2023-12-22T01:37:40;16.37;;;8.33;;
6388;SDS011;3227;42.654;23.360;2023-12-22T01:40:07;16.67;;;9.30;;
6388;SDS011;3227;42.654;23.360;2023-12-22T01:42:35;15.03;;;8.47;;
6388;SDS011;3227;42.654;23.360;2023-12-22T01:45:02;22.60;;;8.73;;
6388;SDS011;3227;42.654;23.360;2023-12-22T01:47:29;16.10;;;8.30;;
6388;SDS011;3227;42.654;23.360;2023-12-22T01:49:55;16.80;;;8.57;;
6388;SDS011;3227;42.654;23.360;2023-12-22T01:52:22;15.77;;;7.93;;
6388;SDS011;3227;42.654;23.360;2023-12-22T01:54:51;17.53;;;9.17;;
6388;SDS011;3227;42.654;23.360;2023-12-22T01:57:20;17.10;;;8.73;;
6388;SDS011;3227;42.654;23.360;2023-12-22T01:59:47;16.47;;;8.13;;
6388;SDS011;3227;42.654;23.360;2023-12-22T02:02:15;14.87;;;7.47;;
6388;SDS011;3227;42.654;23.360;2023-12-22T02:04:42;16.87;;;8.53;;
6388;SDS011;3227;42.654;23.360;2023-12-22T02:07:11;16.87;;;8.23;;
6388;SDS011;3227;42.654;23.360;2023-12-22T02:09:38;15.63;;;8.10;;
6388;SDS011;3227;42.654;23.360;2023-12-22T02:12:07;19.83;;;8.77;;
6388;SDS011;3227;42.654;23.360;2023-12-22T02:14:34;16.43;;;8.07;;
6388;SDS011;3227;42.654;23.360;2023-12-22T02:17:02;17.57;;;8.53;;
6388;SDS011;3227;42.654;23.360;2023-12-22T02:19:41;14.93;;;7.67;;
6388;SDS011;3227;42.654;23.360;2023-12-22T02:22:09;20.13;;;8.30;;
6388;SDS011;3227;42.654;23.360;2023-12-22T02:24:39;16.57;;;8.27;;
6388;SDS011;3227;42.654;23.360;2023-12-22T02:27:08;18.07;;;9.33;;
6388;SDS011;3227;42.654;23.360;2023-12-22T02:29:42;15.37;;;8.80;;
6388;SDS011;3227;42.654;23.360;2023-12-22T02:32:14;12.40;;;7.97;;
6388;SDS011;3227;42.654;23.360;2023-12-22T02:34:47;16.70;;;8.67;;
6388;SDS011;3227;42.654;23.360;2023-12-22T02:37:17;18.23;;;8.70;;
6388;SDS011;3227;42.654;23.360;2023-12-22T02:39:46;17.50;;;9.83;;
6388;SDS011;3227;42.654;23.360;2023-12-22T02:42:13;16.47;;;8.63;;
6388;SDS011;3227;42.654;23.360;2023-12-22T02:44:41;16.27;;;8.40;;
6388;SDS011;3227;42.654;23.360;2023-12-22T02:47:07;19.47;;;8.73;;
6388;SDS011;3227;42.654;23.360;2023-12-22T02:49:34;17.33;;;9.93;;
6388;SDS011;3227;42.654;23.360;2023-12-22T02:52:00;18.13;;;8.77;;
6388;SDS011;3227;42.654;23.360;2023-12-22T02:54:27;15.40;;;8.27;;
6388;SDS011;3227;42.654;23.360;2023-12-22T02:56:58;14.13;;;8.37;;
6388;SDS011;3227;42.654;23.360;2023-12-22T02:59:25;13.03;;;7.90;;
6388;SDS011;3227;42.654;23.360;2023-12-22T03:01:53;16.37;;;9.67;;
6388;SDS011;3227;42.654;23.360;2023-12-22T03:04:20;13.60;;;8.47;;
6388;SDS011;3227;42.654;23.360;2023-12-22T03:06:47;14.10;;;7.90;;
6388;SDS011;3227;42.654;23.360;2023-12-22T03:09:13;18.30;;;9.07;;
6388;SDS011;3227;42.654;23.360;2023-12-22T03:11:40;15.63;;;8.23;;
6388;SDS011;3227;42.654;23.360;2023-12-22T03:14:08;17.67;;;9.10;;
6388;SDS011;3227;42.654;23.360;2023-12-22T03:16:35;15.97;;;8.97;;
6388;SDS011;3227;42.654;23.360;2023-12-22T03:19:02;20.40;;;9.80;;
6388;SDS011;3227;42.654;23.360;2023-12-22T03:21:28;16.43;;;9.50;;
6388;SDS011;3227;42.654;23.360;2023-12-22T03:23:55;18.53;;;9.97;;
6388;SDS011;3227;42.654;23.360;2023-12-22T03:26:22;22.03;;;10.40;;
6388;SDS011;3227;42.654;23.360;2023-12-22T03:28:49;19.47;;;10.00;;
6388;SDS011;3227;42.654;23.360;2023-12-22T03:31:17;21.70;;;11.57;;
6388;SDS011;3227;42.654;23.360;2023-12-22T03:33:44;19.93;;;10.97;;
6388;SDS011;3227;42.654;23.360;2023-12-22T03:36:10;20.63;;;10.43;;
6388;SDS011;3227;42.654;23.360;2023-12-22T03:38:37;22.13;;;11.47;;
6388;SDS011;3227;42.654;23.360;2023-12-22T03:41:04;22.23;;;11.37;;
6388;SDS011;3227;42.654;23.360;2023-12-22T03:43:31;20.13;;;9.40;;
6388;SDS011;3227;42.654;23.360;2023-12-22T03:45:58;20.67;;;10.53;;
6388;SDS011;3227;42.654;23.360;2023-12-22T03:48:26;22.03;;;10.63;;
6388;SDS011;3227;42.654;23.360;2023-12-22T03:50:53;20.27;;;10.23;;
6388;SDS011;3227;42.654;23.360;2023-12-22T03:53:19;19.70;;;9.90;;
6388;SDS011;3227;42.654;23.360;2023-12-22T03:55:46;19.43;;;9.97;;
6388;SDS011;3227;42.654;23.360;2023-12-22T03:58:12;20.73;;;9.57;;
6388;SDS011;3227;42.654;23.360;2023-12-22T04:00:39;20.37;;;8.93;;
6388;SDS011;3227;42.654;23.360;2023-12-22T04:03:05;19.83;;;10.10;;
6388;SDS011;3227;42.654;23.360;2023-12-22T04:05:34;19.97;;;10.10;;
6388;SDS011;3227;42.654;23.360;2023-12-22T04:08:00;17.87;;;10.30;;
6388;SDS011;3227;42.654;23.360;2023-12-22T04:10:27;20.37;;;10.00;;
6388;SDS011;3227;42.654;23.360;2023-12-22T04:12:54;18.77;;;10.03;;
6388;SDS011;3227;42.654;23.360;2023-12-22T04:15:21;19.37;;;10.37;;
6388;SDS011;3227;42.654;23.360;2023-12-22T04:17:48;22.07;;;9.47;;
6388;SDS011;3227;42.654;23.360;2023-12-22T04:20:14;18.10;;;9.50;;
6388;SDS011;3227;42.654;23.360;2023-12-22T04:22:42;20.03;;;9.37;;
6388;SDS011;3227;42.654;23.360;2023-12-22T04:25:09;19.80;;;9.50;;
6388;SDS011;3227;42.654;23.360;2023-12-22T04:27:36;16.03;;;8.90;;
6388;SDS011;3227;42.654;23.360;2023-12-22T04:30:03;21.07;;;9.03;;
6388;SDS011;3227;42.654;23.360;2023-12-22T04:32:31;21.30;;;8.63;;
6388;SDS011;3227;42.654;23.360;2023-12-22T04:34:57;18.87;;;9.70;;
6388;SDS011;3227;42.654;23.360;2023-12-22T04:37:24;17.83;;;9.27;;
6388;SDS011;3227;42.654;23.360;2023-12-22T04:39:52;17.73;;;9.53;;
6388;SDS011;3227;42.654;23.360;2023-12-22T04:42:19;18.10;;;8.87;;
6388;SDS011;3227;42.654;23.360;2023-12-22T04:44:46;14.40;;;8.43;;
6388;SDS011;3227;42.654;23.360;2023-12-22T04:47:14;13.97;;;8.37;;
6388;SDS011;3227;42.654;23.360;2023-12-22T04:49:41;16.77;;;9.07;;
6388;SDS011;3227;42.654;23.360;2023-12-22T04:52:08;16.07;;;9.07;;
6388;SDS011;3227;42.654;23.360;2023-12-22T04:54:35;16.87;;;9.20;;
6388;SDS011;3227;42.654;23.360;2023-12-22T04:57:03;18.73;;;9.67;;
6388;SDS011;3227;42.654;23.360;2023-12-22T04:59:35;18.97;;;9.60;;
6388;SDS011;3227;42.654;23.360;2023-12-22T05:02:02;15.47;;;8.40;;
6388;SDS011;3227;42.654;23.360;2023-12-22T05:04:29;16.27;;;8.53;;
6388;SDS011;3227;42.654;23.360;2023-12-22T05:06:56;16.90;;;8.83;;
6388;SDS011;3227;42.654;23.360;2023-12-22T05:09:23;17.63;;;8.77;;
6388;SDS011;3227;42.654;23.360;2023-12-22T05:11:50;16.97;;;8.77;;
6388;SDS011;3227;42.654;23.360;2023-12-22T05:14:18;17.93;;;8.67;;
6388;SDS011;3227;42.654;23.360;2023-12-22T05:16:45;15.87;;;8.57;;
6388;SDS011;3227;42.654;23.360;2023-12-22T05:19:11;18.43;;;8.00;;
6388;SDS011;3227;42.654;23.360;2023-12-22T05:21:38;18.20;;;9.43;;
6388;SDS011;3227;42.654;23.360;2023-12-22T05:24:05;16.33;;;9.00;;
6388;SDS011;3227;42.654;23.360;2023-12-22T05:26:32;13.10;;;8.77;;
6388;SDS011;3227;42.654;23.360;2023-12-22T05:28:58;15.73;;;9.33;;
6388;SDS011;3227;42.654;23.360;2023-12-22T05:31:27;16.93;;;8.17;;
6388;SDS011;3227;42.654;23.360;2023-12-22T05:33:54;15.33;;;7.67;;
6388;SDS011;3227;42.654;23.360;2023-12-22T05:36:20;13.90;;;8.13;;
6388;SDS011;3227;42.654;23.360;2023-12-22T05:38:47;16.10;;;8.97;;
6388;SDS011;3227;42.654;23.360;2023-12-22T05:41:14;14.43;;;8.77;;
6388;SDS011;3227;42.654;23.360;2023-12-22T05:43:41;17.83;;;8.07;;
6388;SDS011;3227;42.654;23.360;2023-12-22T05:46:08;16.37;;;8.43;;
6388;SDS011;3227;42.654;23.360;2023-12-22T05:48:37;14.53;;;7.97;;
6388;SDS011;3227;42.654;23.360;2023-12-22T05:51:03;15.50;;;8.00;;
6388;SDS011;3227;42.654;23.360;2023-12-22T05:53:32;13.50;;;6.90;;
6388;SDS011;3227;42.654;23.360;2023-12-22T05:55:59;18.13;;;8.97;;
6388;SDS011;3227;42.654;23.360;2023-12-22T05:58:26;15.70;;;8.63;;
6388;SDS011;3227;42.654;23.360;2023-12-22T06:00:53;14.60;;;8.00;;
6388;SDS011;3227;42.654;23.360;2023-12-22T06:03:19;11.43;;;8.10;;
6388;SDS011;3227;42.654;23.360;2023-12-22T06:05:47;16.70;;;7.90;;
6388;SDS011;3227;42.654;23.360;2023-12-22T06:08:15;17.67;;;9.67;;
6388;SDS011;3227;42.654;23.360;2023-12-22T06:10:41;16.13;;;9.07;;
6388;SDS011;3227;42.654;23.360;2023-12-22T06:13:09;12.87;;;8.00;;
6388;SDS011;3227;42.654;23.360;2023-12-22T06:15:36;14.80;;;8.30;;
6388;SDS011;3227;42.654;23.360;2023-12-22T06:18:03;15.13;;;7.73;;
6388;SDS011;3227;42.654;23.360;2023-12-22T06:20:30;16.10;;;8.23;;
6388;SDS011;3227;42.654;23.360;2023-12-22T06:22:58;16.07;;;8.67;;
6388;SDS011;3227;42.654;23.360;2023-12-22T06:25:25;16.10;;;9.03;;
6388;SDS011;3227;42.654;23.360;2023-12-22T06:27:52;18.20;;;9.23;;
6388;SDS011;3227;42.654;23.360;2023-12-22T06:30:19;16.23;;;8.83;;
6388;SDS011;3227;42.654;23.360;2023-12-22T06:32:46;15.57;;;8.30;;
6388;SDS011;3227;42.654;23.360;2023-12-22T06:35:13;13.43;;;7.90;;
6388;SDS011;3227;42.654;23.360;2023-12-22T06:37:40;14.83;;;8.60;;
6388;SDS011;3227;42.654;23.360;2023-12-22T06:40:09;15.57;;;8.73;;
6388;SDS011;3227;42.654;23.360;2023-12-22T06:42:36;22.03;;;8.93;;
6388;SDS011;3227;42.654;23.360;2023-12-22T06:45:03;13.53;;;7.90;;
6388;SDS011;3227;42.654;23.360;2023-12-22T06:47:31;15.20;;;8.57;;
6388;SDS011;3227;42.654;23.360;2023-12-22T06:49:57;15.63;;;9.17;;
6388;SDS011;3227;42.654;23.360;2023-12-22T06:52:24;14.33;;;8.60;;
6388;SDS011;3227;42.654;23.360;2023-12-22T06:54:51;16.93;;;9.93;;
6388;SDS011;3227;42.654;23.360;2023-12-22T06:57:19;18.27;;;9.97;;
6388;SDS011;3227;42.654;23.360;2023-12-22T06:59:46;18.43;;;8.43;;
6388;SDS011;3227;42.654;23.360;2023-12-22T07:02:13;19.37;;;9.97;;
6388;SDS011;3227;42.654;23.360;2023-12-22T07:04:59;21.33;;;10.63;;
6388;SDS011;3227;42.654;23.360;2023-12-22T07:07:31;18.90;;;9.80;;
6388;SDS011;3227;42.654;23.360;2023-12-22T07:09:58;21.57;;;10.80;;
6388;SDS011;3227;42.654;23.360;2023-12-22T07:12:26;20.07;;;10.27;;
6388;SDS011;3227;42.654;23.360;2023-12-22T07:14:53;20.20;;;10.23;;
6388;SDS011;3227;42.654;23.360;2023-12-22T07:17:19;19.87;;;10.67;;
6388;SDS011;3227;42.654;23.360;2023-12-22T07:22:44;16.50;;;9.33;;
6388;SDS011;3227;42.654;23.360;2023-12-22T07:25:11;19.03;;;9.27;;
6388;SDS011;3227;42.654;23.360;2023-12-22T07:27:40;16.27;;;9.60;;
6388;SDS011;3227;42.654;23.360;2023-12-22T07:30:07;16.70;;;9.13;;
6388;SDS011;3227;42.654;23.360;2023-12-22T07:32:36;19.77;;;9.80;;
6388;SDS011;3227;42.654;23.360;2023-12-22T07:35:03;18.63;;;10.10;;
6388;SDS011;3227;42.654;23.360;2023-12-22T07:37:30;15.13;;;10.20;;
6388;SDS011;3227;42.654;23.360;2023-12-22T07:39:57;19.47;;;11.00;;
6388;SDS011;3227;42.654;23.360;2023-12-22T07:42:24;20.20;;;10.17;;
6388;SDS011;3227;42.654;23.360;2023-12-22T07:44:52;12.73;;;8.33;;
6388;SDS011;3227;42.654;23.360;2023-12-22T07:47:19;15.10;;;9.00;;
6388;SDS011;3227;42.654;23.360;2023-12-22T07:49:51;18.53;;;8.63;;
6388;SDS011;3227;42.654;23.360;2023-12-22T07:52:17;17.67;;;8.93;;
6388;SDS011;3227;42.654;23.360;2023-12-22T07:54:44;14.33;;;8.57;;
6388;SDS011;3227;42.654;23.360;2023-12-22T07:57:12;15.10;;;8.37;;
6388;SDS011;3227;42.654;23.360;2023-12-22T07:59:39;16.10;;;7.53;;
6388;SDS011;3227;42.654;23.360;2023-12-22T08:02:07;13.77;;;7.33;;
6388;SDS011;3227;42.654;23.360;2023-12-22T08:04:34;14.93;;;7.90;;
6388;SDS011;3227;42.654;23.360;2023-12-22T08:07:01;16.13;;;7.67;;
6388;SDS011;3227;42.654;23.360;2023-12-22T08:09:33;16.17;;;7.93;;
6388;SDS011;3227;42.654;23.360;2023-12-22T08:12:00;16.33;;;7.63;;
6388;SDS011;3227;42.654;23.360;2023-12-22T08:14:26;12.90;;;7.43;;
6388;SDS011;3227;42.654;23.360;2023-12-22T08:16:53;14.70;;;8.57;;
6388;SDS011;3227;42.654;23.360;2023-12-22T08:19:21;15.17;;;8.60;;
6388;SDS011;3227;42.654;23.360;2023-12-22T08:21:48;13.57;;;7.80;;
6388;SDS011;3227;42.654;23.360;2023-12-22T08:24:15;14.77;;;7.60;;
6388;SDS011;3227;42.654;23.360;2023-12-22T08:26:42;16.67;;;8.60;;
6388;SDS011;3227;42.654;23.360;2023-12-22T08:29:09;14.13;;;7.90;;
6388;SDS011;3227;42.654;23.360;2023-12-22T08:31:36;15.43;;;8.33;;
6388;SDS011;3227;42.654;23.360;2023-12-22T08:34:03;18.53;;;8.60;;
6388;SDS011;3227;42.654;23.360;2023-12-22T08:36:31;15.63;;;8.47;;
6388;SDS011;3227;42.654;23.360;2023-12-22T08:38:58;12.70;;;7.50;;
6388;SDS011;3227;42.654;23.360;2023-12-22T08:41:25;14.47;;;7.87;;
6388;SDS011;3227;42.654;23.360;2023-12-22T08:43:52;12.70;;;7.93;;
6388;SDS011;3227;42.654;23.360;2023-12-22T08:46:19;16.37;;;8.00;;
6388;SDS011;3227;42.654;23.360;2023-12-22T08:48:46;18.87;;;8.47;;
6388;SDS011;3227;42.654;23.360;2023-12-22T08:51:12;16.33;;;8.93;;
6388;SDS011;3227;42.654;23.360;2023-12-22T08:53:40;16.90;;;8.33;;
6388;SDS011;3227;42.654;23.360;2023-12-22T08:56:07;17.67;;;9.67;;
6388;SDS011;3227;42.654;23.360;2023-12-22T08:58:34;15.30;;;8.63;;
6388;SDS011;3227;42.654;23.360;2023-12-22T09:01:01;14.43;;;8.27;;
6388;SDS011;3227;42.654;23.360;2023-12-22T09:03:28;18.57;;;9.23;;
6388;SDS011;3227;42.654;23.360;2023-12-22T09:05:56;16.87;;;9.07;;
6388;SDS011;3227;42.654;23.360;2023-12-22T09:08:23;18.00;;;8.80;;
6388;SDS011;3227;42.654;23.360;2023-12-22T09:10:53;17.97;;;9.30;;
6388;SDS011;3227;42.654;23.360;2023-12-22T09:13:19;15.50;;;8.93;;
6388;SDS011;3227;42.654;23.360;2023-12-22T09:15:48;15.77;;;8.57;;
6388;SDS011;3227;42.654;23.360;2023-12-22T09:18:14;15.47;;;9.20;;
6388;SDS011;3227;42.654;23.360;2023-12-22T09:20:41;14.43;;;8.33;;
6388;SDS011;3227;42.654;23.360;2023-12-22T09:23:08;17.07;;;8.97;;
6388;SDS011;3227;42.654;23.360;2023-12-22T09:25:35;17.40;;;9.03;;
6388;SDS011;3227;42.654;23.360;2023-12-22T09:28:04;19.03;;;9.67;;
6388;SDS011;3227;42.654;23.360;2023-12-22T09:30:31;17.77;;;9.17;;
6388;SDS011;3227;42.654;23.360;2023-12-22T09:32:57;15.97;;;9.10;;
6388;SDS011;3227;42.654;23.360;2023-12-22T09:35:24;17.20;;;9.83;;
6388;SDS011;3227;42.654;23.360;2023-12-22T09:37:52;20.30;;;10.20;;
6388;SDS011;3227;42.654;23.360;2023-12-22T09:40:19;17.67;;;9.60;;
6388;SDS011;3227;42.654;23.360;2023-12-22T09:42:47;17.23;;;9.90;;
6388;SDS011;3227;42.654;23.360;2023-12-22T09:45:16;15.43;;;9.07;;
6388;SDS011;3227;42.654;23.360;2023-12-22T09:47:44;15.83;;;8.80;;
6388;SDS011;3227;42.654;23.360;2023-12-22T09:50:12;17.70;;;9.67;;
6388;SDS011;3227;42.654;23.360;2023-12-22T09:52:41;19.97;;;9.50;;
6388;SDS011;3227;42.654;23.360;2023-12-22T09:55:10;19.67;;;9.93;;
6388;SDS011;3227;42.654;23.360;2023-12-22T09:57:39;21.10;;;10.90;;
6388;SDS011;3227;42.654;23.360;2023-12-22T10:00:08;14.67;;;9.23;;
6388;SDS011;3227;42.654;23.360;2023-12-22T10:02:39;20.23;;;10.17;;
6388;SDS011;3227;42.654;23.360;2023-12-22T10:05:07;19.83;;;10.03;;
6388;SDS011;3227;42.654;23.360;2023-12-22T10:07:34;17.83;;;9.57;;
6388;SDS011;3227;42.654;23.360;2023-12-22T10:10:01;20.73;;;10.30;;
6388;SDS011;3227;42.654;23.360;2023-12-22T10:12:30;18.03;;;9.57;;
6388;SDS011;3227;42.654;23.360;2023-12-22T10:15:00;18.00;;;10.83;;
6388;SDS011;3227;42.654;23.360;2023-12-22T10:17:28;20.73;;;11.17;;
6388;SDS011;3227;42.654;23.360;2023-12-22T10:19:57;19.83;;;11.33;;
6388;SDS011;3227;42.654;23.360;2023-12-22T10:22:24;18.87;;;11.47;;
6388;SDS011;3227;42.654;23.360;2023-12-22T10:24:51;18.50;;;11.27;;
6388;SDS011;3227;42.654;23.360;2023-12-22T10:27:18;22.27;;;11.77;;
6388;SDS011;3227;42.654;23.360;2023-12-22T10:29:47;23.50;;;10.57;;
6388;SDS011;3227;42.654;23.360;2023-12-22T10:32:15;20.23;;;11.43;;
6388;SDS011;3227;42.654;23.360;2023-12-22T10:34:42;23.43;;;12.13;;
6388;SDS011;3227;42.654;23.360;2023-12-22T10:37:10;21.43;;;11.80;;
6388;SDS011;3227;42.654;23.360;2023-12-22T10:39:38;19.43;;;11.13;;
6388;SDS011;3227;42.654;23.360;2023-12-22T10:42:05;20.53;;;11.60;;
6388;SDS011;3227;42.654;23.360;2023-12-22T10:44:32;21.73;;;12.33;;
6388;SDS011;3227;42.654;23.360;2023-12-22T10:47:00;21.43;;;11.67;;
6388;SDS011;3227;42.654;23.360;2023-12-22T10:49:28;22.07;;;11.87;;
6388;SDS011;3227;42.654;23.360;2023-12-22T10:51:54;23.13;;;13.03;;
6388;SDS011;3227;42.654;23.360;2023-12-22T10:54:23;22.23;;;12.83;;
6388;SDS011;3227;42.654;23.360;2023-12-22T10:56:49;21.07;;;11.83;;
6388;SDS011;3227;42.654;23.360;2023-12-22T10:59:18;20.23;;;12.40;;
6388;SDS011;3227;42.654;23.360;2023-12-22T11:01:47;20.10;;;11.60;;
6388;SDS011;3227;42.654;23.360;2023-12-22T11:04:18;21.83;;;11.20;;
6388;SDS011;3227;42.654;23.360;2023-12-22T11:06:48;20.63;;;10.87;;
6388;SDS011;3227;42.654;23.360;2023-12-22T11:09:18;18.17;;;12.13;;
6388;SDS011;3227;42.654;23.360;2023-12-22T11:11:51;22.40;;;11.70;;
6388;SDS011;3227;42.654;23.360;2023-12-22T11:14:18;19.93;;;12.03;;
6388;SDS011;3227;42.654;23.360;2023-12-22T11:16:46;22.77;;;12.20;;
6388;SDS011;3227;42.654;23.360;2023-12-22T11:19:14;20.70;;;12.07;;
6388;SDS011;3227;42.654;23.360;2023-12-22T11:21:41;20.27;;;10.67;;
6388;SDS011;3227;42.654;23.360;2023-12-22T11:24:09;18.67;;;10.80;;
6388;SDS011;3227;42.654;23.360;2023-12-22T11:26:40;18.17;;;11.37;;
6388;SDS011;3227;42.654;23.360;2023-12-22T11:29:07;19.37;;;11.53;;
6388;SDS011;3227;42.654;23.360;2023-12-22T11:31:36;18.97;;;10.27;;
6388;SDS011;3227;42.654;23.360;2023-12-22T11:34:05;21.93;;;11.07;;
6388;SDS011;3227;42.654;23.360;2023-12-22T11:36:34;22.17;;;11.33;;
6388;SDS011;3227;42.654;23.360;2023-12-22T11:39:02;17.87;;;9.43;;
6388;SDS011;3227;42.654;23.360;2023-12-22T11:41:30;9.30;;;5.87;;
6388;SDS011;3227;42.654;23.360;2023-12-22T11:44:01;7.80;;;4.63;;
6388;SDS011;3227;42.654;23.360;2023-12-22T11:46:30;9.23;;;4.30;;
6388;SDS011;3227;42.654;23.360;2023-12-22T11:48:59;8.90;;;4.17;;
6388;SDS011;3227;42.654;23.360;2023-12-22T11:51:25;10.57;;;4.30;;
6388;SDS011;3227;42.654;23.360;2023-12-22T11:53:59;8.67;;;4.57;;
6388;SDS011;3227;42.654;23.360;2023-12-22T11:56:26;9.83;;;3.47;;
6388;SDS011;3227;42.654;23.360;2023-12-22T11:58:54;4.97;;;2.70;;
6388;SDS011;3227;42.654;23.360;2023-12-22T12:01:25;3.33;;;2.20;;
6388;SDS011;3227;42.654;23.360;2023-12-22T12:03:55;3.83;;;2.30;;
6388;SDS011;3227;42.654;23.360;2023-12-22T12:06:30;4.10;;;2.00;;
6388;SDS011;3227;42.654;23.360;2023-12-22T12:08:59;3.27;;;1.93;;
6388;SDS011;3227;42.654;23.360;2023-12-22T12:14:29;3.63;;;2.07;;
6388;SDS011;3227;42.654;23.360;2023-12-22T12:17:00;2.53;;;1.80;;
6388;SDS011;3227;42.654;23.360;2023-12-22T12:19:33;3.93;;;2.20;;
6388;SDS011;3227;42.654;23.360;2023-12-22T12:22:02;3.80;;;2.00;;
6388;SDS011;3227;42.654;23.360;2023-12-22T12:24:29;3.13;;;1.70;;
6388;SDS011;3227;42.654;23.360;2023-12-22T12:26:56;4.70;;;2.20;;
6388;SDS011;3227;42.654;23.360;2023-12-22T12:29:23;4.47;;;2.00;;
6388;SDS011;3227;42.654;23.360;2023-12-22T12:31:50;4.53;;;2.20;;
6388;SDS011;3227;42.654;23.360;2023-12-22T12:34:18;3.63;;;2.17;;
6388;SDS011;3227;42.654;23.360;2023-12-22T12:36:46;3.43;;;1.90;;
6388;SDS011;3227;42.654;23.360;2023-12-22T12:39:14;2.23;;;1.63;;
6388;SDS011;3227;42.654;23.360;2023-12-22T12:41:42;2.67;;;1.90;;
6388;SDS011;3227;42.654;23.360;2023-12-22T12:44:10;2.13;;;1.80;;
6388;SDS011;3227;42.654;23.360;2023-12-22T12:46:37;2.70;;;1.90;;
6388;SDS011;3227;42.654;23.360;2023-12-22T12:49:07;2.63;;;1.87;;
6388;SDS011;3227;42.654;23.360;2023-12-22T12:51:37;2.73;;;1.87;;
6388;SDS011;3227;42.654;23.360;2023-12-22T12:54:05;2.23;;;1.90;;
6388;SDS011;3227;42.654;23.360;2023-12-22T12:56:36;3.90;;;2.10;;
6388;SDS011;3227;42.654;23.360;2023-12-22T12:59:06;4.50;;;1.83;;
6388;SDS011;3227;42.654;23.360;2023-12-22T13:01:37;3.23;;;1.90;;
6388;SDS011;3227;42.654;23.360;2023-12-22T13:04:04;2.33;;;1.70;;
6388;SDS011;3227;42.654;23.360;2023-12-22T13:06:31;4.37;;;2.00;;
6388;SDS011;3227;42.654;23.360;2023-12-22T13:09:00;3.20;;;1.90;;
6388;SDS011;3227;42.654;23.360;2023-12-22T13:11:28;3.47;;;1.90;;
6388;SDS011;3227;42.654;23.360;2023-12-22T13:13:57;3.50;;;1.70;;
6388;SDS011;3227;42.654;23.360;2023-12-22T13:16:24;3.90;;;1.90;;
6388;SDS011;3227;42.654;23.360;2023-12-22T13:18:54;2.97;;;2.00;;
6388;SDS011;3227;42.654;23.360;2023-12-22T13:21:24;2.63;;;1.90;;
6388;SDS011;3227;42.654;23.360;2023-12-22T13:26:38;2.10;;;1.90;;
6388;SDS011;3227;42.654;23.360;2023-12-22T13:29:05;2.83;;;1.90;;
6388;SDS011;3227;42.654;23.360;2023-12-22T13:31:32;2.90;;;1.93;;
6388;SDS011;3227;42.654;23.360;2023-12-22T13:34:00;3.57;;;2.20;;
6388;SDS011;3227;42.654;23.360;2023-12-22T13:36:26;3.03;;;2.20;;
6388;SDS011;3227;42.654;23.360;2023-12-22T13:38:53;3.37;;;2.20;;
6388;SDS011;3227;42.654;23.360;2023-12-22T13:41:21;3.23;;;2.00;;
6388;SDS011;3227;42.654;23.360;2023-12-22T13:43:48;3.40;;;2.07;;
6388;SDS011;3227;42.654;23.360;2023-12-22T13:46:15;3.57;;;2.20;;
6388;SDS011;3227;42.654;23.360;2023-12-22T13:48:42;3.50;;;2.27;;
6388;SDS011;3227;42.654;23.360;2023-12-22T13:51:09;3.90;;;2.10;;
6388;SDS011;3227;42.654;23.360;2023-12-22T13:53:46;3.43;;;2.20;;
6388;SDS011;3227;42.654;23.360;2023-12-22T13:56:13;4.17;;;2.27;;
6388;SDS011;3227;42.654;23.360;2023-12-22T13:58:44;3.23;;;2.10;;
6388;SDS011;3227;42.654;23.360;2023-12-22T14:01:15;3.40;;;2.10;;
6388;SDS011;3227;42.654;23.360;2023-12-22T14:03:42;3.20;;;2.03;;
6388;SDS011;3227;42.654;23.360;2023-12-22T14:06:09;3.17;;;2.00;;
6388;SDS011;3227;42.654;23.360;2023-12-22T14:08:37;2.70;;;1.87;;
6388;SDS011;3227;42.654;23.360;2023-12-22T14:11:08;3.87;;;2.20;;
6388;SDS011;3227;42.654;23.360;2023-12-22T14:13:35;3.83;;;2.33;;
6388;SDS011;3227;42.654;23.360;2023-12-22T14:16:06;3.13;;;1.93;;
6388;SDS011;3227;42.654;23.360;2023-12-22T14:18:33;5.53;;;2.50;;
6388;SDS011;3227;42.654;23.360;2023-12-22T14:21:00;3.43;;;2.20;;
6388;SDS011;3227;42.654;23.360;2023-12-22T14:23:29;2.40;;;1.80;;
6388;SDS011;3227;42.654;23.360;2023-12-22T14:25:55;3.67;;;1.90;;
6388;SDS011;3227;42.654;23.360;2023-12-22T14:28:22;2.97;;;2.00;;
6388;SDS011;3227;42.654;23.360;2023-12-22T14:30:50;3.17;;;1.87;;
6388;SDS011;3227;42.654;23.360;2023-12-22T14:33:18;2.37;;;1.87;;
6388;SDS011;3227;42.654;23.360;2023-12-22T14:35:45;3.60;;;1.93;;
6388;SDS011;3227;42.654;23.360;2023-12-22T14:38:12;3.57;;;2.00;;
6388;SDS011;3227;42.654;23.360;2023-12-22T14:40:39;4.20;;;2.27;;
6388;SDS011;3227;42.654;23.360;2023-12-22T14:43:05;5.57;;;2.10;;
6388;SDS011;3227;42.654;23.360;2023-12-22T14:45:32;4.03;;;2.23;;
6388;SDS011;3227;42.654;23.360;2023-12-22T14:47:59;4.23;;;2.40;;
6388;SDS011;3227;42.654;23.360;2023-12-22T14:50:27;3.53;;;2.10;;
6388;SDS011;3227;42.654;23.360;2023-12-22T14:52:54;3.77;;;2.40;;
6388;SDS011;3227;42.654;23.360;2023-12-22T14:55:20;7.00;;;2.30;;
6388;SDS011;3227;42.654;23.360;2023-12-22T14:57:47;4.87;;;2.47;;
6388;SDS011;3227;42.654;23.360;2023-12-22T15:00:15;5.33;;;2.30;;